Time;durP1;ratioP1;P1;durP2;ratioP2;P2;SDS_P1;SDS_P2;PMS_P1;PMS_P2;Temp;Humidity;BMP_temperature;BMP_pressure;BME280_temperature;BME280_humidity;BME280_pressure;Samples;Min_cycle;Max_cycle;Signal;HPM_P1;HPM_P2
2021/09/05 00:00:00;;;;;;;4.45;2.65;;;24.00;55.00;;;;;;6243932;28;20048;-77
2021/09/05 00:03:01;;;;;;;5.13;2.25;;;24.00;55.10;;;;;;6226077;28;20038;-78
2021/09/05 00:06:02;;;;;;;5.40;2.53;;;24.00;55.10;;;;;;6224283;28;20045;-78
2021/09/05 00:09:03;;;;;;;7.97;2.65;;;24.00;55.20;;;;;;6243595;28;20122;-78
2021/09/05 00:12:06;;;;;;;5.85;2.63;;;24.00;55.30;;;;;;6242424;28;20052;-78
2021/09/05 00:15:08;;;;;;;5.10;2.75;;;24.00;55.30;;;;;;6246904;28;20533;-78
2021/09/05 00:18:09;;;;;;;7.55;3.28;;;24.00;55.30;;;;;;6244828;28;20037;-78
2021/09/05 00:21:10;;;;;;;3.75;2.45;;;24.00;55.50;;;;;;6244191;28;20060;-78
2021/09/05 00:24:11;;;;;;;4.95;2.85;;;23.90;55.80;;;;;;6251982;28;20041;-79
2021/09/05 00:27:12;;;;;;;7.53;2.67;;;23.90;56.10;;;;;;6226325;28;20171;-78
2021/09/05 00:30:13;;;;;;;4.50;2.85;;;23.90;56.20;;;;;;6239251;28;20344;-78
2021/09/05 00:33:14;;;;;;;5.32;2.45;;;23.90;56.50;;;;;;6245357;28;20391;-78
2021/09/05 00:36:16;;;;;;;6.07;2.58;;;23.80;56.80;;;;;;6242893;28;20094;-78
2021/09/05 00:39:17;;;;;;;4.82;3.10;;;23.70;57.00;;;;;;6231802;28;20096;-78
2021/09/05 00:42:26;;;;;;;5.53;2.83;;;23.70;57.30;;;;;;6248928;28;20104;-78
2021/09/05 00:45:27;;;;;;;6.35;2.70;;;23.60;57.60;;;;;;6230451;28;20048;-78
2021/09/05 00:48:28;;;;;;;6.07;3.03;;;23.60;57.80;;;;;;6219846;28;20037;-79
2021/09/05 00:51:31;;;;;;;3.83;2.72;;;23.60;57.90;;;;;;6225086;28;20026;-79
2021/09/05 00:54:34;;;;;;;7.70;2.58;;;23.60;58.00;;;;;;6230153;28;20061;-78
2021/09/05 00:57:36;;;;;;;7.22;3.40;;;23.60;58.00;;;;;;6249375;28;20071;-78
2021/09/05 01:00:37;;;;;;;8.48;3.13;;;23.60;58.20;;;;;;6249205;28;20455;-78
2021/09/05 01:03:39;;;;;;;3.88;2.70;;;23.60;58.30;;;;;;6238358;28;20116;-78
2021/09/05 01:06:41;;;;;;;4.10;2.47;;;23.50;58.40;;;;;;6247175;28;20124;-78
2021/09/05 01:09:45;;;;;;;3.63;2.83;;;23.50;58.50;;;;;;6248547;28;20124;-79
2021/09/05 01:12:48;;;;;;;6.75;2.60;;;23.50;58.50;;;;;;6247864;28;20111;-78
2021/09/05 01:15:49;;;;;;;5.63;2.40;;;23.40;58.50;;;;;;6249059;28;20061;-79
2021/09/05 01:19:12;;;;;;;5.22;2.47;;;23.40;58.50;;;;;;6248057;28;20041;-78
2021/09/05 01:22:42;;;;;;;3.92;2.58;;;23.40;58.50;;;;;;6134992;29;20035;-78
2021/09/05 01:26:21;;;;;;;5.13;2.72;;;23.40;58.50;;;;;;6148748;29;20039;-79
2021/09/05 01:29:52;;;;;;;6.43;2.58;;;23.40;58.50;;;;;;6082444;29;20036;-78
2021/09/05 01:33:17;;;;;;;3.58;2.50;;;23.40;58.40;;;;;;6060799;29;20043;-78
2021/09/05 01:36:39;;;;;;;7.65;2.22;;;23.40;58.50;;;;;;6096113;29;20371;-78
2021/09/05 01:40:07;;;;;;;2.67;1.85;;;23.40;58.30;;;;;;6089030;29;20040;-78
2021/09/05 01:43:27;;;;;;;4.28;1.60;;;23.40;58.00;;;;;;6097345;29;20055;-78
2021/09/05 01:46:47;;;;;;;6.13;2.10;;;23.30;57.70;;;;;;6098577;29;20033;-78
2021/09/05 01:50:09;;;;;;;3.22;2.15;;;23.30;57.50;;;;;;6074572;29;20103;-78
2021/09/05 01:53:28;;;;;;;5.82;1.77;;;23.30;57.40;;;;;;6065186;29;20065;-78
2021/09/05 01:56:51;;;;;;;3.20;2.33;;;23.20;57.20;;;;;;6024888;29;20034;-78
2021/09/05 02:00:11;;;;;;;3.53;1.90;;;23.20;57.20;;;;;;6063886;29;20045;-78
2021/09/05 02:03:25;;;;;;;3.35;1.65;;;23.20;57.10;;;;;;6023545;29;20033;-78
2021/09/05 02:07:05;;;;;;;3.20;2.22;;;23.20;57.00;;;;;;6099803;29;20044;-78
2021/09/05 02:10:41;;;;;;;2.13;1.65;;;23.20;56.90;;;;;;6106317;29;20040;-78
2021/09/05 02:13:59;;;;;;;3.47;1.80;;;23.20;56.80;;;;;;6104406;29;20335;-78
2021/09/05 02:17:23;;;;;;;1.60;1.50;;;23.20;56.60;;;;;;6050788;29;20036;-78
2021/09/05 02:20:59;;;;;;;2.50;1.80;;;23.10;56.40;;;;;;6048073;29;20041;-78
2021/09/05 02:24:19;;;;;;;2.60;1.85;;;23.10;56.30;;;;;;6042973;29;20065;-78
2021/09/05 02:27:51;;;;;;;2.88;2.13;;;23.10;56.20;;;;;;6010363;29;20153;-78
2021/09/05 02:31:23;;;;;;;2.45;1.65;;;23.10;56.10;;;;;;6010226;29;20163;-78
2021/09/05 02:34:50;;;;;;;4.72;1.90;;;23.00;56.00;;;;;;5985938;29;20080;-78
2021/09/05 02:38:14;;;;;;;11.18;1.95;;;23.00;56.00;;;;;;6011400;29;20057;-78
2021/09/05 02:41:39;;;;;;;2.60;1.65;;;23.00;56.00;;;;;;6009002;29;20042;-78
2021/09/05 02:45:10;;;;;;;3.85;1.92;;;23.00;56.10;;;;;;6055046;29;20132;-78
2021/09/05 02:48:29;;;;;;;2.22;1.60;;;22.90;56.10;;;;;;6052891;29;20045;-78
2021/09/05 02:51:49;;;;;;;2.35;1.77;;;22.90;56.30;;;;;;6040022;29;20052;-79
2021/09/05 02:55:09;;;;;;;5.43;1.90;;;22.80;56.50;;;;;;6193871;28;20045;-78
2021/09/05 02:58:48;;;;;;;2.30;1.77;;;22.80;56.60;;;;;;6231332;28;20045;-78
2021/09/05 03:02:09;;;;;;;3.90;2.08;;;22.80;56.80;;;;;;6218418;28;20374;-78
2021/09/05 03:05:30;;;;;;;9.02;2.10;;;22.70;56.90;;;;;;6218961;28;20408;-78
2021/09/05 03:08:58;;;;;;;4.55;2.17;;;22.70;57.00;;;;;;6222576;28;20031;-78
2021/09/05 03:12:16;;;;;;;2.28;1.70;;;22.70;57.10;;;;;;6162949;28;20033;-78
2021/09/05 03:15:45;;;;;;;1.92;1.50;;;22.70;56.90;;;;;;6219033;28;20061;-78
2021/09/05 03:19:06;;;;;;;1.80;1.45;;;22.70;56.80;;;;;;6228292;28;20099;-79
2021/09/05 03:22:30;;;;;;;3.33;1.80;;;22.60;56.60;;;;;;6228136;28;20037;-79
2021/09/05 03:25:49;;;;;;;4.22;1.95;;;22.60;56.50;;;;;;6218289;28;20037;-78
2021/09/05 03:29:09;;;;;;;5.25;1.65;;;22.50;56.50;;;;;;6241640;28;20053;-77
2021/09/05 03:32:42;;;;;;;4.63;1.63;;;22.50;56.60;;;;;;6225198;28;20378;-77
2021/09/05 03:36:02;;;;;;;1.65;1.45;;;22.40;56.60;;;;;;6241932;28;20033;-77
2021/09/05 03:39:15;;;;;;;4.55;1.70;;;22.40;56.60;;;;;;6229002;28;20359;-79
2021/09/05 03:42:51;;;;;;;3.35;2.22;;;22.40;56.70;;;;;;6205411;28;20455;-77
2021/09/05 03:46:09;;;;;;;3.07;1.63;;;22.40;56.80;;;;;;6201874;28;20038;-79
2021/09/05 03:49:37;;;;;;;5.40;2.20;;;22.40;56.90;;;;;;6215032;28;20307;-77
2021/09/05 03:52:42;;;;;;;4.38;2.42;;;22.40;57.00;;;;;;6179554;28;20134;-79
2021/09/05 03:55:45;;;;;;;2.67;2.22;;;22.40;57.30;;;;;;6199836;28;20124;-78
2021/09/05 03:58:48;;;;;;;3.08;2.10;;;22.40;57.60;;;;;;6197135;28;20425;-78
2021/09/05 04:01:50;;;;;;;8.60;2.50;;;22.40;57.90;;;;;;6179761;28;20038;-78
2021/09/05 04:04:56;;;;;;;3.42;2.38;;;22.40;58.00;;;;;;6186240;28;20064;-78
2021/09/05 04:08:16;;;;;;;4.72;2.47;;;22.40;58.30;;;;;;6201894;28;20030;-78
2021/09/05 04:11:17;;;;;;;3.45;2.30;;;22.40;58.70;;;;;;6208670;28;20445;-78
2021/09/05 04:14:18;;;;;;;3.47;2.38;;;22.30;58.90;;;;;;6207920;28;20027;-78
2021/09/05 04:17:19;;;;;;;10.40;2.75;;;22.30;59.20;;;;;;6219387;28;20044;-78
2021/09/05 04:20:20;;;;;;;4.15;2.28;;;22.30;59.40;;;;;;6209235;28;20060;-78
2021/09/05 04:23:21;;;;;;;4.15;2.50;;;22.30;59.70;;;;;;6225258;28;20038;-78
2021/09/05 04:26:22;;;;;;;5.32;2.60;;;22.20;59.80;;;;;;6225799;28;20034;-78
2021/09/05 04:29:24;;;;;;;4.60;2.90;;;22.20;59.90;;;;;;6221788;28;20044;-78
2021/09/05 04:32:25;;;;;;;4.22;2.55;;;22.20;60.10;;;;;;6218815;28;20368;-78
2021/09/05 04:35:26;;;;;;;5.35;2.95;;;22.20;60.30;;;;;;6225011;28;20034;-78
2021/09/05 04:38:27;;;;;;;3.78;2.47;;;22.20;60.40;;;;;;6224575;28;20041;-78
2021/09/05 04:41:28;;;;;;;5.05;2.78;;;22.20;60.40;;;;;;6225602;28;20041;-78
2021/09/05 04:44:29;;;;;;;6.57;2.67;;;22.20;60.50;;;;;;6224532;28;20050;-78
2021/09/05 04:47:29;;;;;;;10.35;2.63;;;22.20;60.70;;;;;;6224110;28;20057;-78
2021/09/05 04:50:30;;;;;;;7.13;2.70;;;22.20;60.90;;;;;;6222565;28;20029;-78
2021/09/05 04:53:31;;;;;;;3.42;2.30;;;22.20;61.00;;;;;;6232664;28;20104;-78
2021/09/05 04:56:32;;;;;;;4.15;2.85;;;22.10;61.20;;;;;;6225413;28;20057;-78
2021/09/05 04:59:33;;;;;;;3.92;2.88;;;22.10;61.40;;;;;;6224443;28;20033;-78
2021/09/05 05:02:34;;;;;;;5.13;2.83;;;22.10;61.60;;;;;;6224813;28;20030;-78
2021/09/05 05:05:36;;;;;;;4.45;3.10;;;22.00;61.70;;;;;;6223029;28;20066;-78
2021/09/05 05:08:37;;;;;;;3.85;2.60;;;22.00;61.90;;;;;;6220389;28;20042;-78
2021/09/05 05:11:39;;;;;;;7.75;3.30;;;22.00;62.10;;;;;;6223872;28;20050;-78
2021/09/05 05:14:40;;;;;;;7.13;4.15;;;22.00;62.30;;;;;;6223988;28;20030;-77
2021/09/05 05:17:41;;;;;;;6.53;3.38;;;22.00;62.40;;;;;;6222488;28;20041;-77
2021/09/05 05:20:42;;;;;;;5.55;2.60;;;22.00;62.60;;;;;;6207505;28;20091;-77
2021/09/05 05:23:43;;;;;;;3.75;2.75;;;22.00;62.70;;;;;;6222816;28;20037;-77
2021/09/05 05:26:44;;;;;;;5.63;2.75;;;21.90;62.80;;;;;;6225160;28;20100;-78
2021/09/05 05:29:45;;;;;;;7.95;3.17;;;21.90;63.00;;;;;;6223497;28;20430;-78
2021/09/05 05:32:45;;;;;;;7.85;3.10;;;21.90;63.00;;;;;;6222972;28;20084;-79
2021/09/05 05:35:48;;;;;;;8.68;3.05;;;21.90;63.00;;;;;;6224243;28;20150;-78
2021/09/05 05:38:49;;;;;;;6.53;3.08;;;21.90;63.10;;;;;;6223665;28;20054;-78
2021/09/05 05:41:50;;;;;;;4.07;2.50;;;21.90;63.00;;;;;;6223028;28;20044;-79
2021/09/05 05:44:50;;;;;;;6.72;3.10;;;21.90;63.10;;;;;;6223346;28;20359;-78
2021/09/05 05:47:51;;;;;;;6.50;3.08;;;21.90;63.20;;;;;;6206970;28;20320;-77
2021/09/05 05:50:53;;;;;;;6.07;3.20;;;21.90;63.20;;;;;;6222587;28;20062;-77
2021/09/05 05:53:54;;;;;;;6.03;2.80;;;21.90;63.40;;;;;;6223230;28;20041;-77
2021/09/05 05:56:55;;;;;;;7.18;3.47;;;21.80;63.50;;;;;;6206897;28;20049;-78
2021/09/05 05:59:56;;;;;;;3.95;2.80;;;21.80;63.50;;;;;;6223134;28;20046;-77
2021/09/05 06:02:57;;;;;;;9.13;2.70;;;21.80;63.60;;;;;;6223168;28;20038;-77
2021/09/05 06:05:58;;;;;;;9.38;3.38;;;21.80;63.70;;;;;;6221140;28;20056;-77
2021/09/05 06:08:59;;;;;;;5.90;3.35;;;21.80;63.90;;;;;;6222349;28;20062;-77
2021/09/05 06:11:59;;;;;;;7.80;3.03;;;21.80;64.00;;;;;;6205488;28;20061;-77
2021/09/05 06:15:00;;;;;;;7.28;3.33;;;21.80;64.10;;;;;;6205268;28;20056;-77
2021/09/05 06:18:02;;;;;;;4.90;3.60;;;21.80;64.10;;;;;;6223921;28;20043;-77
2021/09/05 06:21:03;;;;;;;6.78;3.90;;;21.80;64.00;;;;;;6223349;28;20044;-78
2021/09/05 06:24:04;;;;;;;7.05;4.20;;;21.90;64.00;;;;;;6222731;28;20034;-77
2021/09/05 06:27:05;;;;;;;6.35;3.63;;;21.90;64.00;;;;;;6223368;28;20045;-78
2021/09/05 06:30:07;;;;;;;5.32;3.33;;;21.90;63.90;;;;;;6205016;28;20026;-77
2021/09/05 06:33:08;;;;;;;5.97;3.13;;;22.00;63.90;;;;;;6221590;28;20030;-78
2021/09/05 06:36:10;;;;;;;5.85;3.15;;;22.00;63.80;;;;;;6224361;28;20041;-77
2021/09/05 06:39:11;;;;;;;4.93;3.50;;;22.00;63.70;;;;;;6221655;28;20368;-78
2021/09/05 06:42:12;;;;;;;8.30;3.70;;;22.00;63.70;;;;;;6222106;28;20030;-77
2021/09/05 06:45:13;;;;;;;6.93;2.97;;;22.10;63.70;;;;;;6222862;28;20038;-77
2021/09/05 06:48:14;;;;;;;6.15;3.53;;;22.10;63.70;;;;;;6222710;28;20402;-77
2021/09/05 06:51:15;;;;;;;7.07;3.33;;;22.10;63.50;;;;;;6215855;28;20049;-77
2021/09/05 06:54:16;;;;;;;4.80;3.42;;;22.10;63.40;;;;;;6197650;28;20474;-77
2021/09/05 06:57:17;;;;;;;7.82;3.83;;;22.20;63.50;;;;;;6222629;28;20034;-77
2021/09/05 07:00:18;;;;;;;4.95;3.55;;;22.20;63.40;;;;;;6221402;28;20030;-77
2021/09/05 07:03:19;;;;;;;10.57;3.78;;;22.30;63.30;;;;;;6215383;28;20119;-77
2021/09/05 07:06:20;;;;;;;6.07;3.47;;;22.30;63.20;;;;;;6230622;28;20061;-77
2021/09/05 07:09:21;;;;;;;3.83;2.92;;;22.40;63.80;;;;;;6221332;28;20034;-79
2021/09/05 07:12:23;;;;;;;7.68;3.22;;;22.50;62.60;;;;;;6198589;28;20041;-77
2021/09/05 07:15:24;;;;;;;5.28;3.15;;;22.60;62.30;;;;;;6212898;28;20030;-77
2021/09/05 07:18:24;;;;;;;9.18;3.80;;;22.60;62.00;;;;;;6203446;28;20064;-78
2021/09/05 07:21:25;;;;;;;4.25;3.00;;;22.70;62.00;;;;;;6221622;28;20040;-79
2021/09/05 07:24:26;;;;;;;6.82;3.50;;;22.70;61.80;;;;;;6215936;28;20181;-78
2021/09/05 07:27:27;;;;;;;6.18;3.65;;;22.80;61.70;;;;;;6220001;28;20455;-79
2021/09/05 07:30:28;;;;;;;6.57;3.42;;;22.90;61.30;;;;;;6220801;28;20182;-79
2021/09/05 07:33:29;;;;;;;6.32;3.22;;;23.00;60.90;;;;;;6204047;28;20046;-79
2021/09/05 07:36:33;;;;;;;7.00;3.17;;;23.10;60.80;;;;;;6219410;28;20046;-79
2021/09/05 07:39:34;;;;;;;5.30;2.60;;;23.20;60.50;;;;;;6211481;28;20452;-79
2021/09/05 07:42:35;;;;;;;6.05;2.80;;;23.40;60.30;;;;;;6215012;28;20045;-79
2021/09/05 07:45:35;;;;;;;5.03;2.85;;;23.50;59.80;;;;;;6220233;28;20048;-79
2021/09/05 07:48:38;;;;;;;6.38;2.63;;;23.60;59.40;;;;;;6213686;28;20371;-78
2021/09/05 07:51:39;;;;;;;7.57;2.90;;;23.90;59.20;;;;;;6219545;28;20037;-77
2021/09/05 07:54:40;;;;;;;4.63;2.65;;;23.90;58.60;;;;;;6221051;28;20463;-78
2021/09/05 07:57:41;;;;;;;5.07;2.88;;;23.90;58.40;;;;;;6221118;28;20379;-78
2021/09/05 08:00:42;;;;;;;9.38;2.90;;;24.00;58.30;;;;;;6221065;28;20029;-78
2021/09/05 08:03:43;;;;;;;3.97;3.03;;;24.20;58.20;;;;;;6220152;28;20172;-78
2021/09/05 08:06:44;;;;;;;6.63;2.70;;;24.30;57.90;;;;;;6220370;28;20048;-78
2021/09/05 08:09:45;;;;;;;4.07;2.85;;;24.50;57.60;;;;;;6221380;28;20038;-78
2021/09/05 08:12:46;;;;;;;4.93;2.90;;;24.70;57.10;;;;;;6203908;28;20104;-77
2021/09/05 08:15:47;;;;;;;7.38;2.97;;;24.80;56.60;;;;;;6223567;28;20042;-78
2021/09/05 08:18:48;;;;;;;7.25;2.50;;;24.90;56.40;;;;;;6220179;28;20479;-78
2021/09/05 08:21:49;;;;;;;3.45;2.55;;;25.00;56.30;;;;;;6220640;28;20107;-78
2021/09/05 08:24:50;;;;;;;4.10;2.50;;;25.10;56.00;;;;;;6219811;28;20065;-78
2021/09/05 08:27:51;;;;;;;4.18;3.10;;;25.20;55.70;;;;;;6191079;28;20042;-77
2021/09/05 08:30:52;;;;;;;4.25;2.38;;;25.40;55.40;;;;;;6220202;28;20132;-78
2021/09/05 08:33:53;;;;;;;4.20;2.40;;;25.50;55.00;;;;;;6203226;28;20041;-78
2021/09/05 08:36:54;;;;;;;9.63;2.70;;;25.60;54.70;;;;;;6217781;28;20045;-79
2021/09/05 08:39:55;;;;;;;5.45;2.92;;;25.70;54.50;;;;;;6201405;28;20494;-78
2021/09/05 08:42:56;;;;;;;3.92;2.78;;;25.80;54.40;;;;;;6219600;28;20045;-78
2021/09/05 08:45:56;;;;;;;9.13;2.70;;;25.90;54.20;;;;;;6219559;28;20482;-81
2021/09/05 08:49:01;;;;;;;5.22;2.65;;;26.00;54.00;;;;;;6196758;28;20493;-80
2021/09/05 08:52:04;;;;;;;3.10;2.13;;;26.10;53.70;;;;;;6203596;28;20057;-82
2021/09/05 08:55:06;;;;;;;4.72;2.65;;;26.30;53.50;;;;;;6224908;28;20049;-82
2021/09/05 08:58:07;;;;;;;6.07;3.17;;;26.40;53.10;;;;;;6231797;28;20041;-82
2021/09/05 09:01:35;;;;;;;4.25;2.63;;;26.50;52.70;;;;;;6232738;28;20034;-82
2021/09/05 09:04:38;;;;;;;3.75;2.80;;;26.60;52.30;;;;;;6248715;28;20053;-82
2021/09/05 09:07:44;;;;;;;3.47;2.70;;;26.70;51.80;;;;;;6220558;28;20044;-82
2021/09/05 09:10:57;;;;;;;7.55;2.63;;;26.70;51.60;;;;;;6233167;28;20038;-82
2021/09/05 09:13:58;;;;;;;3.25;2.25;;;26.70;51.80;;;;;;6245410;28;20069;-81
2021/09/05 09:16:59;;;;;;;3.70;2.50;;;26.80;52.30;;;;;;6247171;28;20045;-82
2021/09/05 09:20:01;;;;;;;5.68;3.22;;;26.90;51.40;;;;;;6248681;28;20041;-82
2021/09/05 09:23:07;;;;;;;2.90;2.42;;;26.90;51.20;;;;;;6227450;28;20091;-82
2021/09/05 09:26:17;;;;;;;2.80;2.30;;;27.00;51.10;;;;;;6219843;28;20038;-82
2021/09/05 09:29:18;;;;;;;4.70;2.30;;;27.10;50.90;;;;;;6247746;28;20117;-82
2021/09/05 09:32:23;;;;;;;2.78;2.17;;;27.20;50.60;;;;;;6251210;28;20080;-82
2021/09/05 09:35:24;;;;;;;2.47;2.00;;;27.20;50.00;;;;;;6230062;28;20049;-81
2021/09/05 09:38:25;;;;;;;5.75;2.70;;;27.30;49.80;;;;;;6242923;28;20477;-82
2021/09/05 09:41:37;;;;;;;4.15;2.42;;;27.30;49.70;;;;;;6242014;28;20045;-83
2021/09/05 09:44:38;;;;;;;5.15;2.60;;;27.40;49.60;;;;;;6220576;28;20557;-81
2021/09/05 09:47:47;;;;;;;7.63;2.17;;;27.50;49.00;;;;;;6248029;28;20033;-81
2021/09/05 09:50:48;;;;;;;2.72;2.03;;;27.50;48.60;;;;;;6248210;28;20060;-83
2021/09/05 09:53:52;;;;;;;2.88;2.28;;;27.50;48.20;;;;;;6239606;28;20040;-83
2021/09/05 09:56:54;;;;;;;6.32;2.25;;;27.50;47.90;;;;;;6247598;28;20072;-82
2021/09/05 09:59:55;;;;;;;6.93;2.60;;;27.50;48.00;;;;;;6229097;28;20048;-79
2021/09/05 10:02:56;;;;;;;4.60;2.47;;;27.60;48.10;;;;;;6245016;28;20345;-79
2021/09/05 10:06:00;;;;;;;10.50;5.50;;;27.70;48.00;;;;;;6245707;28;20045;-79
2021/09/05 10:09:06;;;;;;;4.65;2.78;;;27.60;47.90;;;;;;6247320;28;20426;-79
2021/09/05 10:12:08;;;;;;;4.30;2.72;;;27.60;48.00;;;;;;6247457;28;20093;-80
2021/09/05 10:15:10;;;;;;;4.20;2.60;;;27.70;48.10;;;;;;6247355;28;20029;-79
2021/09/05 10:18:12;;;;;;;5.07;2.55;;;27.80;48.20;;;;;;6247377;28;20389;-81
2021/09/05 10:21:15;;;;;;;3.80;2.58;;;27.90;48.00;;;;;;6237862;28;20033;-77
2021/09/05 10:24:18;;;;;;;2.97;2.33;;;28.00;47.90;;;;;;6246493;28;20408;-77
2021/09/05 10:27:30;;;;;;;6.05;3.40;;;28.10;47.60;;;;;;6245440;28;20034;-77
2021/09/05 10:30:31;;;;;;;3.60;2.40;;;28.10;47.30;;;;;;6242153;28;20033;-77
2021/09/05 10:33:36;;;;;;;7.82;2.53;;;28.20;47.00;;;;;;6229344;28;20049;-79
2021/09/05 10:36:46;;;;;;;8.85;4.15;;;28.20;46.70;;;;;;6246625;28;20029;-77
2021/09/05 10:40:06;;;;;;;5.90;2.95;;;28.30;46.40;;;;;;6246121;28;20034;-78
2021/09/05 10:43:07;;;;;;;3.67;2.47;;;28.50;45.80;;;;;;6229513;28;20171;-80
2021/09/05 10:46:09;;;;;;;7.63;2.53;;;28.90;45.20;;;;;;6245384;28;20060;-77
2021/09/05 10:49:10;;;;;;;4.38;3.08;;;29.30;44.80;;;;;;6223524;28;20037;-79
2021/09/05 10:52:11;;;;;;;14.95;8.20;;;29.80;44.20;;;;;;6246300;28;20048;-77
2021/09/05 10:55:14;;;;;;;13.18;6.60;;;30.20;43.50;;;;;;6243591;28;20032;-79
2021/09/05 10:58:15;;;;;;;7.70;3.33;;;30.70;43.00;;;;;;6245820;28;20040;-77
2021/09/05 11:01:25;;;;;;;5.07;2.72;;;31.10;42.30;;;;;;6245680;28;20048;-78
2021/09/05 11:04:47;;;;;;;3.65;2.45;;;31.40;41.60;;;;;;6244728;28;20343;-77
2021/09/05 11:07:48;;;;;;;4.07;2.42;;;31.70;40.80;;;;;;6240524;28;20041;-79
2021/09/05 11:10:51;;;;;;;5.90;3.05;;;32.00;40.30;;;;;;6247401;28;20041;-78
2021/09/05 11:13:53;;;;;;;6.80;2.40;;;32.20;39.60;;;;;;6245907;28;20060;-78
2021/09/05 11:16:54;;;;;;;4.88;3.20;;;32.40;39.10;;;;;;6245446;28;20116;-77
2021/09/05 11:20:17;;;;;;;2.25;2.00;;;32.50;38.70;;;;;;6245699;28;20469;-78
2021/09/05 11:23:18;;;;;;;2.80;2.35;;;32.70;38.40;;;;;;6243869;28;20120;-79
2021/09/05 11:26:19;;;;;;;3.55;2.15;;;32.80;37.70;;;;;;6243988;28;20123;-80
2021/09/05 11:29:24;;;;;;;3.92;2.28;;;33.00;37.10;;;;;;6238881;28;20056;-87
2021/09/05 11:32:25;;;;;;;4.03;2.40;;;33.10;36.60;;;;;;6255548;28;20056;-82
2021/09/05 11:35:33;;;;;;;3.03;2.50;;;33.20;36.70;;;;;;6225766;28;21454;-80
2021/09/05 11:38:36;;;;;;;2.30;2.00;;;33.40;36.60;;;;;;6224677;28;20033;-80
2021/09/05 11:41:37;;;;;;;3.13;2.42;;;33.60;36.30;;;;;;6242097;28;20272;-78
2021/09/05 11:44:40;;;;;;;4.90;2.75;;;33.70;35.90;;;;;;6242887;28;20453;-80
2021/09/05 11:47:42;;;;;;;4.25;2.50;;;33.90;35.90;;;;;;6242634;28;20041;-81
2021/09/05 11:50:43;;;;;;;3.78;2.40;;;34.00;36.10;;;;;;6223617;28;20045;-79
2021/09/05 11:53:58;;;;;;;2.50;2.30;;;34.30;35.10;;;;;;6244389;28;20037;-77
2021/09/05 11:57:03;;;;;;;2.38;2.03;;;34.60;34.50;;;;;;6241854;28;20072;-78
2021/09/05 12:00:08;;;;;;;3.70;1.90;;;34.90;34.20;;;;;;6245282;28;20421;-79
2021/09/05 12:03:23;;;;;;;2.95;2.28;;;35.20;33.70;;;;;;6243811;28;20234;-78
2021/09/05 12:06:24;;;;;;;3.83;2.15;;;35.50;33.10;;;;;;6239997;28;20128;-77
2021/09/05 12:09:28;;;;;;;3.00;2.17;;;35.80;32.50;;;;;;6243361;28;20112;-78
2021/09/05 12:12:29;;;;;;;3.58;2.13;;;36.10;32.10;;;;;;6241398;28;20423;-79
2021/09/05 12:15:34;;;;;;;3.28;2.17;;;36.50;31.40;;;;;;6241584;28;20057;-77
2021/09/05 12:18:35;;;;;;;3.97;2.17;;;36.70;30.70;;;;;;6224943;28;20076;-79
2021/09/05 12:21:39;;;;;;;4.80;2.47;;;37.10;30.30;;;;;;6226477;28;20052;-77
2021/09/05 12:24:40;;;;;;;4.72;2.28;;;37.60;29.80;;;;;;6242857;28;20152;-77
2021/09/05 12:27:53;;;;;;;7.65;1.98;;;38.20;29.10;;;;;;6245463;28;20056;-77
2021/09/05 12:31:01;;;;;;;4.18;1.90;;;38.90;28.50;;;;;;6245327;28;20335;-77
2021/09/05 12:34:02;;;;;;;2.83;2.05;;;39.60;27.40;;;;;;6247686;28;20470;-77
2021/09/05 12:37:26;;;;;;;7.28;2.30;;;40.10;27.00;;;;;;6231464;28;20045;-78
2021/09/05 12:40:36;;;;;;;5.05;1.98;;;40.60;26.40;;;;;;6231370;28;20064;-79
2021/09/05 12:43:43;;;;;;;2.55;1.77;;;41.00;25.90;;;;;;6248537;28;20057;-79
2021/09/05 12:46:47;;;;;;;5.60;2.00;;;41.60;25.40;;;;;;6232369;28;20144;-78
2021/09/05 12:49:49;;;;;;;3.70;1.80;;;42.00;25.20;;;;;;6232477;28;20124;-78
2021/09/05 12:52:51;;;;;;;3.33;2.15;;;42.50;24.70;;;;;;6232720;28;20067;-79
2021/09/05 12:55:53;;;;;;;4.90;1.90;;;42.90;24.30;;;;;;6233034;28;20041;-78
2021/09/05 12:58:55;;;;;;;2.33;2.00;;;43.30;23.90;;;;;;6248439;28;20138;-78
2021/09/05 13:01:57;;;;;;;2.42;2.03;;;43.60;23.50;;;;;;6231831;28;20033;-78
2021/09/05 13:04:59;;;;;;;2.03;1.80;;;44.00;23.20;;;;;;6247739;28;20049;-77
2021/09/05 13:08:01;;;;;;;3.67;1.98;;;44.30;22.90;;;;;;6250198;28;20196;-79
2021/09/05 13:11:02;;;;;;;5.35;1.90;;;44.80;22.70;;;;;;6247788;28;20044;-78
2021/09/05 13:14:08;;;;;;;3.33;1.77;;;45.00;22.40;;;;;;6236592;28;20048;-80
2021/09/05 13:17:10;;;;;;;2.10;1.73;;;45.40;22.20;;;;;;6248268;28;20047;-78
2021/09/05 13:20:12;;;;;;;2.63;1.80;;;45.60;21.80;;;;;;6249657;28;20033;-77
2021/09/05 13:23:13;;;;;;;2.03;1.83;;;45.40;21.60;;;;;;6225855;28;20041;-77
2021/09/05 13:26:21;;;;;;;5.10;2.10;;;45.40;21.50;;;;;;6248203;28;20112;-78
2021/09/05 13:29:23;;;;;;;1.98;1.73;;;45.60;21.30;;;;;;6248961;28;20048;-77
2021/09/05 13:32:28;;;;;;;2.47;2.17;;;45.70;21.30;;;;;;6230396;28;20042;-78
2021/09/05 13:35:29;;;;;;;3.58;2.25;;;45.80;21.20;;;;;;6248353;28;20126;-79
2021/09/05 13:38:31;;;;;;;3.85;1.77;;;45.80;21.10;;;;;;6247526;28;20033;-79
2021/09/05 13:41:32;;;;;;;5.22;1.85;;;45.80;20.90;;;;;;6246746;28;20473;-80
2021/09/05 13:44:33;;;;;;;3.00;1.85;;;46.00;20.90;;;;;;6247843;28;20057;-78
2021/09/05 13:47:34;;;;;;;7.05;2.05;;;45.80;20.70;;;;;;6230700;28;20117;-78
2021/09/05 13:50:35;;;;;;;8.18;2.67;;;45.60;20.80;;;;;;6231130;28;20029;-78
2021/09/05 13:53:37;;;;;;;3.55;2.22;;;45.00;21.20;;;;;;6248297;28;20501;-78
2021/09/05 13:56:38;;;;;;;4.97;2.40;;;44.20;21.80;;;;;;6246675;28;20053;-78
2021/09/05 13:59:40;;;;;;;5.68;2.40;;;43.00;22.70;;;;;;6230016;28;20470;-78
2021/09/05 14:02:42;;;;;;;3.55;2.20;;;41.80;23.80;;;;;;6247895;28;20363;-78
2021/09/05 14:05:43;;;;;;;3.25;2.05;;;40.70;24.80;;;;;;6245330;28;20463;-78
2021/09/05 14:08:44;;;;;;;5.07;2.15;;;39.60;25.70;;;;;;6247666;28;20087;-78
2021/09/05 14:11:46;;;;;;;3.47;2.17;;;38.60;26.70;;;;;;6245340;28;20064;-77
2021/09/05 14:14:47;;;;;;;2.60;1.92;;;37.50;27.50;;;;;;6247803;28;20029;-77
2021/09/05 14:17:48;;;;;;;1.80;1.70;;;36.70;28.30;;;;;;6230921;28;20119;-77
2021/09/05 14:20:51;;;;;;;3.45;2.15;;;36.00;28.80;;;;;;6247472;28;20038;-78
2021/09/05 14:23:53;;;;;;;4.07;2.20;;;35.50;29.30;;;;;;6229583;28;20076;-78
2021/09/05 14:27:02;;;;;;;3.58;2.35;;;35.10;29.60;;;;;;6247070;28;20037;-78
2021/09/05 14:30:49;;;;;;;4.65;2.40;;;34.70;30.10;;;;;;6246164;28;20037;-79
2021/09/05 14:50:16;;;;;;;3.13;1.92;;;33.20;33.60;;;;;;6251550;28;20124;-78
2021/09/05 14:56:24;;;;;;;3.15;2.20;;;33.00;34.30;;;;;;6238543;28;20037;-78
2021/09/05 15:02:44;;;;;;;4.55;2.50;;;32.90;34.70;;;;;;6243201;28;20033;-78
2021/09/05 15:12:26;;;;;;;3.63;2.40;;;32.80;34.70;;;;;;6253270;28;20455;-78
2021/09/05 15:15:27;;;;;;;3.05;1.95;;;32.80;34.60;;;;;;6244707;28;20195;-77
2021/09/05 15:18:29;;;;;;;3.05;2.15;;;32.80;34.30;;;;;;6244734;28;20045;-78
2021/09/05 15:21:40;;;;;;;3.13;2.53;;;32.80;34.40;;;;;;6228051;28;20112;-77
2021/09/05 15:24:43;;;;;;;4.25;2.25;;;32.70;34.30;;;;;;6244751;28;20037;-77
2021/09/05 15:28:08;;;;;;;9.63;2.55;;;32.70;34.50;;;;;;6228556;28;20050;-78
2021/09/05 15:31:17;;;;;;;5.40;2.50;;;32.70;34.60;;;;;;6245561;28;20431;-79
2021/09/05 15:34:50;;;;;;;2.45;2.08;;;32.70;34.80;;;;;;6245006;28;20417;-77
2021/09/05 15:54:21;;;;;;;2.38;2.13;;;32.60;35.30;;;;;;6243388;28;20034;-77
2021/09/05 15:57:23;;;;;;;3.47;2.25;;;32.60;35.30;;;;;;6227125;28;20029;-78
2021/09/05 16:00:29;;;;;;;3.17;2.13;;;32.50;35.40;;;;;;6222339;28;20139;-77
2021/09/05 16:03:38;;;;;;;2.85;2.22;;;32.40;35.50;;;;;;6242740;28;20041;-77
2021/09/05 16:16:39;;;;;;;4.90;2.22;;;32.10;35.80;;;;;;6244608;28;20095;-78
2021/09/05 16:19:40;;;;;;;2.67;2.13;;;32.90;34.90;;;;;;6242011;28;20049;-78
2021/09/05 16:22:42;;;;;;;3.97;2.50;;;34.40;32.90;;;;;;6243276;28;20037;-78
2021/09/05 16:25:44;;;;;;;2.60;2.05;;;35.70;30.90;;;;;;6244695;28;20045;-77
2021/09/05 16:28:45;;;;;;;2.95;2.20;;;36.60;29.70;;;;;;6245208;28;20045;-78
2021/09/05 16:31:47;;;;;;;4.25;2.47;;;37.40;28.90;;;;;;6226134;28;20050;-78
2021/09/05 16:41:05;;;;;;;3.75;2.67;;;37.20;28.50;;;;;;6244254;28;20068;-77
2021/09/05 16:44:06;;;;;;;3.60;2.70;;;36.30;29.30;;;;;;6226147;28;20033;-78
2021/09/05 16:47:08;;;;;;;3.47;2.17;;;35.50;30.00;;;;;;6243509;28;20041;-77
2021/09/05 16:50:11;;;;;;;6.35;2.10;;;34.90;30.80;;;;;;6216944;28;20570;-77
2021/09/05 16:53:12;;;;;;;4.00;2.55;;;34.30;31.40;;;;;;6244092;28;20112;-77
2021/09/05 16:56:14;;;;;;;4.93;2.38;;;33.90;32.00;;;;;;6243183;28;20033;-78
2021/09/05 16:59:15;;;;;;;3.45;2.28;;;33.40;32.40;;;;;;6227127;28;20030;-78
2021/09/05 17:02:16;;;;;;;4.80;2.50;;;33.10;32.90;;;;;;6242875;28;20103;-77
2021/09/05 17:05:17;;;;;;;3.65;2.40;;;32.90;33.40;;;;;;6242273;28;20462;-77
2021/09/05 17:08:20;;;;;;;6.05;2.60;;;32.60;33.70;;;;;;6244219;28;20044;-78